sensor_id;sensor_type;location;lat;lon;timestamp;temperature;humidity
23683;DHT22;24897;53.514;10.482;2023-04-03T00:02:07;1.20;99.90
23683;DHT22;24897;53.514;10.482;2023-04-03T00:04:51;1.20;99.90
23683;DHT22;24897;53.514;10.482;2023-04-03T00:07:36;1.20;99.90
23683;DHT22;24897;53.514;10.482;2023-04-03T00:10:20;1.20;99.90
23683;DHT22;24897;53.514;10.482;2023-04-03T00:13:05;1.20;99.90
23683;DHT22;24897;53.514;10.482;2023-04-03T00:15:49;1.20;99.90
23683;DHT22;24897;53.514;10.482;2023-04-03T00:18:33;1.10;99.90
23683;DHT22;24897;53.514;10.482;2023-04-03T00:21:18;1.00;99.90
23683;DHT22;24897;53.514;10.482;2023-04-03T00:24:02;1.00;99.90
23683;DHT22;24897;53.514;10.482;2023-04-03T00:26:46;1.00;99.90
23683;DHT22;24897;53.514;10.482;2023-04-03T00:29:31;0.90;99.90
23683;DHT22;24897;53.514;10.482;2023-04-03T00:32:15;0.90;99.90
23683;DHT22;24897;53.514;10.482;2023-04-03T00:34:59;0.90;99.90
23683;DHT22;24897;53.514;10.482;2023-04-03T00:37:43;1.00;99.90
23683;DHT22;24897;53.514;10.482;2023-04-03T00:40:33;1.40;99.90
23683;DHT22;24897;53.514;10.482;2023-04-03T00:43:24;0.80;99.90
23683;DHT22;24897;53.514;10.482;2023-04-03T00:46:10;0.80;99.90
23683;DHT22;24897;53.514;10.482;2023-04-03T00:48:54;0.70;99.90
23683;DHT22;24897;53.514;10.482;2023-04-03T00:51:39;0.70;99.90
23683;DHT22;24897;53.514;10.482;2023-04-03T00:54:24;1.50;99.90
23683;DHT22;24897;53.514;10.482;2023-04-03T00:57:10;0.70;99.90
23683;DHT22;24897;53.514;10.482;2023-04-03T01:00:00;0.70;99.90
23683;DHT22;24897;53.514;10.482;2023-04-03T01:02:45;0.60;99.90
23683;DHT22;24897;53.514;10.482;2023-04-03T01:05:30;0.60;99.90
23683;DHT22;24897;53.514;10.482;2023-04-03T01:08:14;0.60;99.90
23683;DHT22;24897;53.514;10.482;2023-04-03T01:10:58;0.60;99.90
23683;DHT22;24897;53.514;10.482;2023-04-03T01:13:42;0.60;99.90
23683;DHT22;24897;53.514;10.482;2023-04-03T01:16:26;0.60;99.90
23683;DHT22;24897;53.514;10.482;2023-04-03T01:19:16;0.60;99.90
23683;DHT22;24897;53.514;10.482;2023-04-03T01:22:26;0.50;99.90
23683;DHT22;24897;53.514;10.482;2023-04-03T01:25:13;0.40;99.90
23683;DHT22;24897;53.514;10.482;2023-04-03T01:27:58;0.50;99.90
23683;DHT22;24897;53.514;10.482;2023-04-03T01:33:44;0.50;99.90
23683;DHT22;24897;53.514;10.482;2023-04-03T01:36:30;0.40;99.90
23683;DHT22;24897;53.514;10.482;2023-04-03T01:39:15;0.40;99.90
23683;DHT22;24897;53.514;10.482;2023-04-03T01:41:59;0.40;99.90
23683;DHT22;24897;53.514;10.482;2023-04-03T01:44:43;1.00;99.90
23683;DHT22;24897;53.514;10.482;2023-04-03T01:47:28;0.30;99.90
23683;DHT22;24897;53.514;10.482;2023-04-03T01:50:16;0.30;99.90
23683;DHT22;24897;53.514;10.482;2023-04-03T01:53:00;0.30;99.90
23683;DHT22;24897;53.514;10.482;2023-04-03T01:55:44;0.30;99.90
23683;DHT22;24897;53.514;10.482;2023-04-03T01:58:29;0.00;99.90
23683;DHT22;24897;53.514;10.482;2023-04-03T02:01:13;0.20;99.90
23683;DHT22;24897;53.514;10.482;2023-04-03T02:03:57;0.20;99.90
23683;DHT22;24897;53.514;10.482;2023-04-03T02:06:42;0.10;99.90
23683;DHT22;24897;53.514;10.482;2023-04-03T02:09:26;0.10;99.90
23683;DHT22;24897;53.514;10.482;2023-04-03T02:12:10;0.10;99.90
23683;DHT22;24897;53.514;10.482;2023-04-03T02:14:54;0.20;99.90
23683;DHT22;24897;53.514;10.482;2023-04-03T02:17:38;0.10;99.90
23683;DHT22;24897;53.514;10.482;2023-04-03T02:20:23;0.00;99.90
23683;DHT22;24897;53.514;10.482;2023-04-03T02:23:08;0.00;99.90
23683;DHT22;24897;53.514;10.482;2023-04-03T02:25:52;0.00;99.90
23683;DHT22;24897;53.514;10.482;2023-04-03T02:28:36;0.00;99.90
23683;DHT22;24897;53.514;10.482;2023-04-03T02:31:21;0.00;99.90
23683;DHT22;24897;53.514;10.482;2023-04-03T02:34:06;0.00;99.90
23683;DHT22;24897;53.514;10.482;2023-04-03T02:36:50;-0.10;99.90
23683;DHT22;24897;53.514;10.482;2023-04-03T02:39:34;-0.10;99.90
23683;DHT22;24897;53.514;10.482;2023-04-03T02:42:19;-0.10;99.90
23683;DHT22;24897;53.514;10.482;2023-04-03T02:45:04;-0.10;99.90
23683;DHT22;24897;53.514;10.482;2023-04-03T02:47:48;-0.10;99.90
23683;DHT22;24897;53.514;10.482;2023-04-03T02:50:32;-0.10;99.90
23683;DHT22;24897;53.514;10.482;2023-04-03T02:53:17;-0.10;99.90
23683;DHT22;24897;53.514;10.482;2023-04-03T02:56:01;-0.10;99.90
23683;DHT22;24897;53.514;10.482;2023-04-03T02:58:46;-0.10;99.90
23683;DHT22;24897;53.514;10.482;2023-04-03T03:01:30;-0.10;99.90
23683;DHT22;24897;53.514;10.482;2023-04-03T03:04:16;-0.10;99.90
23683;DHT22;24897;53.514;10.482;2023-04-03T03:07:00;-0.10;99.90
23683;DHT22;24897;53.514;10.482;2023-04-03T03:12:29;-0.20;99.90
23683;DHT22;24897;53.514;10.482;2023-04-03T03:15:13;-0.20;99.90
23683;DHT22;24897;53.514;10.482;2023-04-03T03:17:59;-0.20;99.90
23683;DHT22;24897;53.514;10.482;2023-04-03T03:20:44;-0.20;99.90
23683;DHT22;24897;53.514;10.482;2023-04-03T03:23:30;-0.20;99.90
23683;DHT22;24897;53.514;10.482;2023-04-03T03:26:16;-0.30;99.90
23683;DHT22;24897;53.514;10.482;2023-04-03T03:29:00;-0.30;99.90
23683;DHT22;24897;53.514;10.482;2023-04-03T03:31:44;-0.30;99.90
23683;DHT22;24897;53.514;10.482;2023-04-03T03:34:29;-0.30;99.90
23683;DHT22;24897;53.514;10.482;2023-04-03T03:37:13;-0.40;99.90
23683;DHT22;24897;53.514;10.482;2023-04-03T03:39:57;-0.40;99.90
23683;DHT22;24897;53.514;10.482;2023-04-03T03:42:41;-0.40;99.90
23683;DHT22;24897;53.514;10.482;2023-04-03T03:45:25;-0.40;99.90
23683;DHT22;24897;53.514;10.482;2023-04-03T03:48:10;-0.40;99.90
23683;DHT22;24897;53.514;10.482;2023-04-03T03:50:54;-0.40;99.90
23683;DHT22;24897;53.514;10.482;2023-04-03T03:53:38;-0.50;99.90
23683;DHT22;24897;53.514;10.482;2023-04-03T03:56:22;-0.50;99.90
23683;DHT22;24897;53.514;10.482;2023-04-03T03:59:06;-0.50;99.90
23683;DHT22;24897;53.514;10.482;2023-04-03T04:01:50;-0.50;99.90
23683;DHT22;24897;53.514;10.482;2023-04-03T04:04:34;-0.50;99.90
23683;DHT22;24897;53.514;10.482;2023-04-03T04:07:18;-0.50;99.90
23683;DHT22;24897;53.514;10.482;2023-04-03T04:10:03;-0.50;99.90
23683;DHT22;24897;53.514;10.482;2023-04-03T04:12:47;-0.50;99.90
23683;DHT22;24897;53.514;10.482;2023-04-03T04:15:33;-0.50;99.90
23683;DHT22;24897;53.514;10.482;2023-04-03T04:18:18;-0.50;99.90
23683;DHT22;24897;53.514;10.482;2023-04-03T04:21:03;-0.50;99.90
23683;DHT22;24897;53.514;10.482;2023-04-03T04:23:48;-0.50;99.90
23683;DHT22;24897;53.514;10.482;2023-04-03T04:26:32;-0.50;99.90
23683;DHT22;24897;53.514;10.482;2023-04-03T04:29:16;-0.50;99.90
23683;DHT22;24897;53.514;10.482;2023-04-03T04:32:01;-0.50;99.90
23683;DHT22;24897;53.514;10.482;2023-04-03T04:34:46;-0.60;99.90
23683;DHT22;24897;53.514;10.482;2023-04-03T04:37:30;-0.60;99.90
23683;DHT22;24897;53.514;10.482;2023-04-03T04:40:15;-0.60;99.90
23683;DHT22;24897;53.514;10.482;2023-04-03T04:42:59;-0.60;99.90
23683;DHT22;24897;53.514;10.482;2023-04-03T04:45:44;-0.60;99.90
23683;DHT22;24897;53.514;10.482;2023-04-03T04:48:28;-0.60;99.90
23683;DHT22;24897;53.514;10.482;2023-04-03T04:51:14;-0.60;99.90
23683;DHT22;24897;53.514;10.482;2023-04-03T04:53:58;-0.60;99.90
23683;DHT22;24897;53.514;10.482;2023-04-03T04:56:42;-0.60;99.90
23683;DHT22;24897;53.514;10.482;2023-04-03T04:59:26;-0.60;99.90
23683;DHT22;24897;53.514;10.482;2023-04-03T05:02:10;-0.60;99.90
23683;DHT22;24897;53.514;10.482;2023-04-03T05:04:54;-0.60;99.90
23683;DHT22;24897;53.514;10.482;2023-04-03T05:07:39;-0.60;99.90
23683;DHT22;24897;53.514;10.482;2023-04-03T05:10:23;-0.50;99.90
23683;DHT22;24897;53.514;10.482;2023-04-03T05:13:07;-0.50;99.90
23683;DHT22;24897;53.514;10.482;2023-04-03T05:15:51;-0.50;99.90
23683;DHT22;24897;53.514;10.482;2023-04-03T05:18:35;-0.40;99.90
23683;DHT22;24897;53.514;10.482;2023-04-03T05:21:19;-0.30;99.90
23683;DHT22;24897;53.514;10.482;2023-04-03T05:24:03;-0.30;99.90
23683;DHT22;24897;53.514;10.482;2023-04-03T05:26:48;-0.20;99.90
23683;DHT22;24897;53.514;10.482;2023-04-03T05:29:32;-0.10;99.90
23683;DHT22;24897;53.514;10.482;2023-04-03T05:32:17;0.00;99.90
23683;DHT22;24897;53.514;10.482;2023-04-03T05:35:01;0.10;99.90
23683;DHT22;24897;53.514;10.482;2023-04-03T05:37:45;0.20;99.90
23683;DHT22;24897;53.514;10.482;2023-04-03T05:40:29;0.20;99.90
23683;DHT22;24897;53.514;10.482;2023-04-03T05:43:13;0.30;99.90
23683;DHT22;24897;53.514;10.482;2023-04-03T05:45:58;0.30;99.90
23683;DHT22;24897;53.514;10.482;2023-04-03T05:48:43;0.40;99.90
23683;DHT22;24897;53.514;10.482;2023-04-03T05:51:34;0.50;99.90
23683;DHT22;24897;53.514;10.482;2023-04-03T05:54:21;0.60;99.90
23683;DHT22;24897;53.514;10.482;2023-04-03T05:57:07;0.70;99.90
23683;DHT22;24897;53.514;10.482;2023-04-03T05:59:51;0.80;99.90
23683;DHT22;24897;53.514;10.482;2023-04-03T06:02:35;0.80;99.90
23683;DHT22;24897;53.514;10.482;2023-04-03T06:05:20;0.90;99.90
23683;DHT22;24897;53.514;10.482;2023-04-03T06:08:04;1.00;99.90
23683;DHT22;24897;53.514;10.482;2023-04-03T06:10:48;1.00;99.90
23683;DHT22;24897;53.514;10.482;2023-04-03T06:13:32;1.10;99.90
23683;DHT22;24897;53.514;10.482;2023-04-03T06:16:17;1.30;99.90
23683;DHT22;24897;53.514;10.482;2023-04-03T06:19:02;1.30;99.90
23683;DHT22;24897;53.514;10.482;2023-04-03T06:21:46;1.40;99.90
23683;DHT22;24897;53.514;10.482;2023-04-03T06:24:31;1.50;99.90
23683;DHT22;24897;53.514;10.482;2023-04-03T06:27:15;1.60;99.90
23683;DHT22;24897;53.514;10.482;2023-04-03T06:30:00;1.70;99.90
23683;DHT22;24897;53.514;10.482;2023-04-03T06:32:45;1.90;99.90
23683;DHT22;24897;53.514;10.482;2023-04-03T06:35:29;2.00;99.90
23683;DHT22;24897;53.514;10.482;2023-04-03T06:38:14;2.10;99.90
23683;DHT22;24897;53.514;10.482;2023-04-03T06:40:58;2.10;99.90
23683;DHT22;24897;53.514;10.482;2023-04-03T06:43:43;2.30;99.90
23683;DHT22;24897;53.514;10.482;2023-04-03T06:46:28;2.40;99.90
23683;DHT22;24897;53.514;10.482;2023-04-03T06:49:12;2.40;99.90
23683;DHT22;24897;53.514;10.482;2023-04-03T06:51:57;2.60;99.90
23683;DHT22;24897;53.514;10.482;2023-04-03T06:54:42;2.70;99.90
23683;DHT22;24897;53.514;10.482;2023-04-03T06:57:26;2.80;99.90
23683;DHT22;24897;53.514;10.482;2023-04-03T07:00:11;3.00;99.90
23683;DHT22;24897;53.514;10.482;2023-04-03T07:02:56;3.10;99.90
23683;DHT22;24897;53.514;10.482;2023-04-03T07:05:41;3.30;99.90
23683;DHT22;24897;53.514;10.482;2023-04-03T07:08:28;3.40;99.90
23683;DHT22;24897;53.514;10.482;2023-04-03T07:11:13;3.60;99.90
23683;DHT22;24897;53.514;10.482;2023-04-03T07:13:57;3.70;99.90
23683;DHT22;24897;53.514;10.482;2023-04-03T07:16:41;4.00;99.90
23683;DHT22;24897;53.514;10.482;2023-04-03T07:19:25;4.20;99.90
23683;DHT22;24897;53.514;10.482;2023-04-03T07:22:12;4.30;99.90
23683;DHT22;24897;53.514;10.482;2023-04-03T07:24:56;4.30;99.90
23683;DHT22;24897;53.514;10.482;2023-04-03T07:27:40;4.50;99.90
23683;DHT22;24897;53.514;10.482;2023-04-03T07:30:24;4.60;99.90
23683;DHT22;24897;53.514;10.482;2023-04-03T07:33:09;4.80;99.90
23683;DHT22;24897;53.514;10.482;2023-04-03T07:35:53;4.80;99.90
23683;DHT22;24897;53.514;10.482;2023-04-03T07:38:37;4.90;99.90
23683;DHT22;24897;53.514;10.482;2023-04-03T07:41:22;4.90;99.90
23683;DHT22;24897;53.514;10.482;2023-04-03T07:44:07;5.50;99.90
23683;DHT22;24897;53.514;10.482;2023-04-03T07:46:54;5.10;99.90
23683;DHT22;24897;53.514;10.482;2023-04-03T07:49:41;5.30;99.90
23683;DHT22;24897;53.514;10.482;2023-04-03T07:52:26;5.30;99.90
23683;DHT22;24897;53.514;10.482;2023-04-03T07:55:10;5.60;99.90
23683;DHT22;24897;53.514;10.482;2023-04-03T07:57:54;5.90;99.90
23683;DHT22;24897;53.514;10.482;2023-04-03T08:00:42;6.40;99.90
23683;DHT22;24897;53.514;10.482;2023-04-03T08:03:27;6.90;99.90
23683;DHT22;24897;53.514;10.482;2023-04-03T08:06:11;7.50;99.90
23683;DHT22;24897;53.514;10.482;2023-04-03T08:08:56;8.00;99.90
23683;DHT22;24897;53.514;10.482;2023-04-03T08:11:42;8.30;99.90
23683;DHT22;24897;53.514;10.482;2023-04-03T08:14:26;8.60;99.90
23683;DHT22;24897;53.514;10.482;2023-04-03T08:17:10;9.30;99.90
23683;DHT22;24897;53.514;10.482;2023-04-03T08:19:57;9.60;99.90
23683;DHT22;24897;53.514;10.482;2023-04-03T08:22:42;9.90;99.90
23683;DHT22;24897;53.514;10.482;2023-04-03T08:25:26;9.80;99.90
23683;DHT22;24897;53.514;10.482;2023-04-03T08:28:11;9.90;99.90
23683;DHT22;24897;53.514;10.482;2023-04-03T08:30:56;9.80;99.90
23683;DHT22;24897;53.514;10.482;2023-04-03T08:33:46;9.90;99.90
23683;DHT22;24897;53.514;10.482;2023-04-03T08:36:31;9.70;99.90
23683;DHT22;24897;53.514;10.482;2023-04-03T08:39:16;9.50;99.90
23683;DHT22;24897;53.514;10.482;2023-04-03T08:42:07;9.70;99.90
23683;DHT22;24897;53.514;10.482;2023-04-03T08:48:01;9.60;99.90
23683;DHT22;24897;53.514;10.482;2023-04-03T08:50:53;9.70;99.90
23683;DHT22;24897;53.514;10.482;2023-04-03T08:53:42;10.10;99.90
23683;DHT22;24897;53.514;10.482;2023-04-03T08:56:27;10.20;99.90
23683;DHT22;24897;53.514;10.482;2023-04-03T08:59:28;10.40;99.90
23683;DHT22;24897;53.514;10.482;2023-04-03T09:02:27;10.50;99.90
23683;DHT22;24897;53.514;10.482;2023-04-03T09:08:14;10.60;99.90
23683;DHT22;24897;53.514;10.482;2023-04-03T09:11:25;10.80;99.90
23683;DHT22;24897;53.514;10.482;2023-04-03T09:14:30;10.90;99.90
23683;DHT22;24897;53.514;10.482;2023-04-03T09:17:39;11.20;99.90
23683;DHT22;24897;53.514;10.482;2023-04-03T09:23:32;11.80;99.90
23683;DHT22;24897;53.514;10.482;2023-04-03T09:29:07;12.00;99.90
23683;DHT22;24897;53.514;10.482;2023-04-03T09:32:02;12.60;99.90
23683;DHT22;24897;53.514;10.482;2023-04-03T09:34:56;11.40;99.90
23683;DHT22;24897;53.514;10.482;2023-04-03T09:37:45;11.20;99.90
23683;DHT22;24897;53.514;10.482;2023-04-03T09:40:33;11.20;99.90
23683;DHT22;24897;53.514;10.482;2023-04-03T09:43:28;11.30;99.90
23683;DHT22;24897;53.514;10.482;2023-04-03T09:46:39;11.20;99.90
23683;DHT22;24897;53.514;10.482;2023-04-03T09:49:24;10.90;99.90
23683;DHT22;24897;53.514;10.482;2023-04-03T09:52:24;11.30;99.90
23683;DHT22;24897;53.514;10.482;2023-04-03T09:55:18;11.80;99.90
23683;DHT22;24897;53.514;10.482;2023-04-03T09:58:04;12.20;99.90
23683;DHT22;24897;53.514;10.482;2023-04-03T10:00:55;12.30;99.90
23683;DHT22;24897;53.514;10.482;2023-04-03T10:03:40;11.80;99.90
23683;DHT22;24897;53.514;10.482;2023-04-03T10:06:34;11.80;99.90
23683;DHT22;24897;53.514;10.482;2023-04-03T10:09:29;11.80;99.90
23683;DHT22;24897;53.514;10.482;2023-04-03T10:12:19;11.30;99.90
23683;DHT22;24897;53.514;10.482;2023-04-03T10:15:12;11.30;99.90
23683;DHT22;24897;53.514;10.482;2023-04-03T10:18:00;11.90;99.90
23683;DHT22;24897;53.514;10.482;2023-04-03T10:20:51;12.40;99.90
23683;DHT22;24897;53.514;10.482;2023-04-03T10:24:12;11.90;99.90
23683;DHT22;24897;53.514;10.482;2023-04-03T10:29:59;11.50;99.90
23683;DHT22;24897;53.514;10.482;2023-04-03T10:48:10;9.80;99.90
23683;DHT22;24897;53.514;10.482;2023-04-03T10:54:34;10.30;99.90
23683;DHT22;24897;53.514;10.482;2023-04-03T10:57:23;11.30;99.90
23683;DHT22;24897;53.514;10.482;2023-04-03T11:00:16;11.60;99.90
23683;DHT22;24897;53.514;10.482;2023-04-03T11:03:32;11.00;99.90
23683;DHT22;24897;53.514;10.482;2023-04-03T11:06:20;10.60;99.90
23683;DHT22;24897;53.514;10.482;2023-04-03T11:12:15;10.00;99.90
23683;DHT22;24897;53.514;10.482;2023-04-03T11:15:02;9.90;99.90
23683;DHT22;24897;53.514;10.482;2023-04-03T11:20:35;10.90;99.90
23683;DHT22;24897;53.514;10.482;2023-04-03T11:23:25;11.10;99.90
23683;DHT22;24897;53.514;10.482;2023-04-03T11:26:15;11.10;99.90
23683;DHT22;24897;53.514;10.482;2023-04-03T11:29:08;11.40;99.90
23683;DHT22;24897;53.514;10.482;2023-04-03T11:35:18;11.50;99.90
23683;DHT22;24897;53.514;10.482;2023-04-03T11:38:04;10.50;99.90
23683;DHT22;24897;53.514;10.482;2023-04-03T11:40:50;10.00;99.90
23683;DHT22;24897;53.514;10.482;2023-04-03T11:43:55;9.30;99.90
23683;DHT22;24897;53.514;10.482;2023-04-03T11:50:01;9.30;99.90
23683;DHT22;24897;53.514;10.482;2023-04-03T11:58:34;10.20;99.90
23683;DHT22;24897;53.514;10.482;2023-04-03T12:04:37;11.00;99.90
23683;DHT22;24897;53.514;10.482;2023-04-03T12:07:21;11.30;99.90
23683;DHT22;24897;53.514;10.482;2023-04-03T12:10:15;11.10;99.90
23683;DHT22;24897;53.514;10.482;2023-04-03T12:13:00;11.00;99.90
23683;DHT22;24897;53.514;10.482;2023-04-03T12:15:51;10.90;99.90
23683;DHT22;24897;53.514;10.482;2023-04-03T12:24:34;10.70;99.90
23683;DHT22;24897;53.514;10.482;2023-04-03T12:27:28;10.70;99.90
23683;DHT22;24897;53.514;10.482;2023-04-03T12:30:18;11.30;99.90
23683;DHT22;24897;53.514;10.482;2023-04-03T12:33:27;11.30;99.90
23683;DHT22;24897;53.514;10.482;2023-04-03T12:36:28;10.70;99.90
23683;DHT22;24897;53.514;10.482;2023-04-03T12:39:42;10.70;99.90
23683;DHT22;24897;53.514;10.482;2023-04-03T12:42:39;11.20;99.90
23683;DHT22;24897;53.514;10.482;2023-04-03T12:45:27;11.30;99.90
23683;DHT22;24897;53.514;10.482;2023-04-03T12:48:15;11.10;99.90
23683;DHT22;24897;53.514;10.482;2023-04-03T12:51:00;11.00;99.90
23683;DHT22;24897;53.514;10.482;2023-04-03T12:53:46;10.70;99.90
23683;DHT22;24897;53.514;10.482;2023-04-03T12:56:32;10.90;99.90
23683;DHT22;24897;53.514;10.482;2023-04-03T12:59:23;11.40;99.90
23683;DHT22;24897;53.514;10.482;2023-04-03T13:02:28;11.40;99.90
23683;DHT22;24897;53.514;10.482;2023-04-03T13:05:17;11.00;99.90
23683;DHT22;24897;53.514;10.482;2023-04-03T13:08:12;10.30;99.90
23683;DHT22;24897;53.514;10.482;2023-04-03T13:11:04;10.60;99.90
23683;DHT22;24897;53.514;10.482;2023-04-03T13:13:58;10.80;99.90
23683;DHT22;24897;53.514;10.482;2023-04-03T13:16:56;10.10;99.90
23683;DHT22;24897;53.514;10.482;2023-04-03T13:19:43;9.30;99.90
23683;DHT22;24897;53.514;10.482;2023-04-03T13:22:32;9.40;99.90
23683;DHT22;24897;53.514;10.482;2023-04-03T13:25:19;10.10;99.90
23683;DHT22;24897;53.514;10.482;2023-04-03T13:28:09;9.90;99.90
23683;DHT22;24897;53.514;10.482;2023-04-03T13:34:05;9.20;99.90
23683;DHT22;24897;53.514;10.482;2023-04-03T13:39:38;10.00;99.90
23683;DHT22;24897;53.514;10.482;2023-04-03T13:42:25;10.10;99.90
23683;DHT22;24897;53.514;10.482;2023-04-03T13:45:28;10.00;99.90
23683;DHT22;24897;53.514;10.482;2023-04-03T13:48:20;9.60;99.90
23683;DHT22;24897;53.514;10.482;2023-04-03T13:51:16;9.30;99.90
23683;DHT22;24897;53.514;10.482;2023-04-03T13:54:15;9.00;99.90
23683;DHT22;24897;53.514;10.482;2023-04-03T13:57:02;9.50;99.90
23683;DHT22;24897;53.514;10.482;2023-04-03T13:59:47;9.40;99.90
23683;DHT22;24897;53.514;10.482;2023-04-03T14:02:33;9.00;99.90
23683;DHT22;24897;53.514;10.482;2023-04-03T14:05:17;8.80;99.90
23683;DHT22;24897;53.514;10.482;2023-04-03T14:08:05;8.90;99.90
23683;DHT22;24897;53.514;10.482;2023-04-03T14:10:51;9.10;99.90
23683;DHT22;24897;53.514;10.482;2023-04-03T14:13:35;9.30;99.90
23683;DHT22;24897;53.514;10.482;2023-04-03T14:16:22;9.10;99.90
23683;DHT22;24897;53.514;10.482;2023-04-03T14:19:07;8.70;99.90
23683;DHT22;24897;53.514;10.482;2023-04-03T14:22:00;9.00;99.90
23683;DHT22;24897;53.514;10.482;2023-04-03T14:24:45;9.40;99.90
23683;DHT22;24897;53.514;10.482;2023-04-03T14:27:38;9.70;99.90
23683;DHT22;24897;53.514;10.482;2023-04-03T14:30:29;9.70;99.90
23683;DHT22;24897;53.514;10.482;2023-04-03T14:33:16;9.60;99.90
23683;DHT22;24897;53.514;10.482;2023-04-03T14:36:01;9.30;99.90
23683;DHT22;24897;53.514;10.482;2023-04-03T14:38:47;9.00;99.90
23683;DHT22;24897;53.514;10.482;2023-04-03T14:41:33;9.10;99.90
23683;DHT22;24897;53.514;10.482;2023-04-03T14:44:17;8.90;99.90
23683;DHT22;24897;53.514;10.482;2023-04-03T14:47:01;8.80;99.90
23683;DHT22;24897;53.514;10.482;2023-04-03T14:49:47;8.60;99.90
23683;DHT22;24897;53.514;10.482;2023-04-03T14:52:34;8.60;99.90
23683;DHT22;24897;53.514;10.482;2023-04-03T14:55:21;8.50;99.90
23683;DHT22;24897;53.514;10.482;2023-04-03T14:58:05;8.20;99.90
23683;DHT22;24897;53.514;10.482;2023-04-03T15:00:49;8.20;99.90
23683;DHT22;24897;53.514;10.482;2023-04-03T15:03:33;8.40;99.90
23683;DHT22;24897;53.514;10.482;2023-04-03T15:06:18;8.40;99.90
23683;DHT22;24897;53.514;10.482;2023-04-03T15:09:03;8.60;99.90
23683;DHT22;24897;53.514;10.482;2023-04-03T15:11:49;8.30;99.90
23683;DHT22;24897;53.514;10.482;2023-04-03T15:14:33;8.20;99.90
23683;DHT22;24897;53.514;10.482;2023-04-03T15:17:21;8.40;99.90
23683;DHT22;24897;53.514;10.482;2023-04-03T15:20:14;8.50;99.90
23683;DHT22;24897;53.514;10.482;2023-04-03T15:22:59;8.50;99.90
23683;DHT22;24897;53.514;10.482;2023-04-03T15:25:46;8.30;99.90
23683;DHT22;24897;53.514;10.482;2023-04-03T15:28:41;8.40;99.90
23683;DHT22;24897;53.514;10.482;2023-04-03T15:31:25;8.30;99.90
23683;DHT22;24897;53.514;10.482;2023-04-03T15:34:10;8.20;99.90
23683;DHT22;24897;53.514;10.482;2023-04-03T15:36:54;8.30;99.90
23683;DHT22;24897;53.514;10.482;2023-04-03T15:39:39;8.30;99.90
23683;DHT22;24897;53.514;10.482;2023-04-03T15:42:23;8.40;99.90
23683;DHT22;24897;53.514;10.482;2023-04-03T15:45:08;8.00;99.90
23683;DHT22;24897;53.514;10.482;2023-04-03T15:47:53;7.80;99.90
23683;DHT22;24897;53.514;10.482;2023-04-03T15:50:37;7.60;99.90
23683;DHT22;24897;53.514;10.482;2023-04-03T15:53:22;7.70;99.90
23683;DHT22;24897;53.514;10.482;2023-04-03T15:56:06;7.80;99.90
23683;DHT22;24897;53.514;10.482;2023-04-03T15:58:52;7.70;99.90
23683;DHT22;24897;53.514;10.482;2023-04-03T16:01:37;7.50;99.90
23683;DHT22;24897;53.514;10.482;2023-04-03T16:04:22;7.40;99.90
23683;DHT22;24897;53.514;10.482;2023-04-03T16:07:06;7.20;99.90
23683;DHT22;24897;53.514;10.482;2023-04-03T16:09:50;7.20;99.90
23683;DHT22;24897;53.514;10.482;2023-04-03T16:12:34;7.20;99.90
23683;DHT22;24897;53.514;10.482;2023-04-03T16:15:22;7.30;99.90
23683;DHT22;24897;53.514;10.482;2023-04-03T16:18:08;7.30;99.90
23683;DHT22;24897;53.514;10.482;2023-04-03T16:20:53;7.30;99.90
23683;DHT22;24897;53.514;10.482;2023-04-03T16:23:38;7.10;99.90
23683;DHT22;24897;53.514;10.482;2023-04-03T16:26:22;7.00;99.90
23683;DHT22;24897;53.514;10.482;2023-04-03T16:29:09;7.00;99.90
23683;DHT22;24897;53.514;10.482;2023-04-03T16:31:53;6.90;99.90
23683;DHT22;24897;53.514;10.482;2023-04-03T16:34:38;6.90;99.90
23683;DHT22;24897;53.514;10.482;2023-04-03T16:37:24;6.70;99.90
23683;DHT22;24897;53.514;10.482;2023-04-03T16:40:09;6.60;99.90
23683;DHT22;24897;53.514;10.482;2023-04-03T16:42:54;6.60;99.90
23683;DHT22;24897;53.514;10.482;2023-04-03T16:45:38;6.60;99.90
23683;DHT22;24897;53.514;10.482;2023-04-03T16:48:22;6.90;99.90
23683;DHT22;24897;53.514;10.482;2023-04-03T16:51:07;6.50;99.90
23683;DHT22;24897;53.514;10.482;2023-04-03T16:53:51;6.40;99.90
23683;DHT22;24897;53.514;10.482;2023-04-03T16:56:35;6.40;99.90
23683;DHT22;24897;53.514;10.482;2023-04-03T16:59:22;5.00;99.90
23683;DHT22;24897;53.514;10.482;2023-04-03T17:02:07;6.10;99.90
23683;DHT22;24897;53.514;10.482;2023-04-03T17:04:52;6.00;99.90
23683;DHT22;24897;53.514;10.482;2023-04-03T17:07:37;5.90;99.90
23683;DHT22;24897;53.514;10.482;2023-04-03T17:10:21;5.80;99.90
23683;DHT22;24897;53.514;10.482;2023-04-03T17:13:06;5.80;99.90
23683;DHT22;24897;53.514;10.482;2023-04-03T17:15:50;5.70;99.90
23683;DHT22;24897;53.514;10.482;2023-04-03T17:18:35;5.70;99.90
23683;DHT22;24897;53.514;10.482;2023-04-03T17:21:22;5.70;99.90
23683;DHT22;24897;53.514;10.482;2023-04-03T17:24:07;5.60;99.90
23683;DHT22;24897;53.514;10.482;2023-04-03T17:26:56;5.60;99.90
23683;DHT22;24897;53.514;10.482;2023-04-03T17:29:40;5.50;99.90
23683;DHT22;24897;53.514;10.482;2023-04-03T17:32:25;5.50;99.90
23683;DHT22;24897;53.514;10.482;2023-04-03T17:35:09;5.40;99.90
23683;DHT22;24897;53.514;10.482;2023-04-03T17:37:53;5.40;99.90
23683;DHT22;24897;53.514;10.482;2023-04-03T17:40:37;5.50;99.90
23683;DHT22;24897;53.514;10.482;2023-04-03T17:43:22;5.40;99.90
23683;DHT22;24897;53.514;10.482;2023-04-03T17:46:08;5.30;99.90
23683;DHT22;24897;53.514;10.482;2023-04-03T17:48:52;5.30;99.90
23683;DHT22;24897;53.514;10.482;2023-04-03T17:51:37;5.30;99.90
23683;DHT22;24897;53.514;10.482;2023-04-03T17:54:21;5.30;99.90
23683;DHT22;24897;53.514;10.482;2023-04-03T17:57:05;5.30;99.90
23683;DHT22;24897;53.514;10.482;2023-04-03T17:59:51;5.30;99.90
23683;DHT22;24897;53.514;10.482;2023-04-03T18:02:37;5.30;99.90
23683;DHT22;24897;53.514;10.482;2023-04-03T18:05:21;5.30;99.90
23683;DHT22;24897;53.514;10.482;2023-04-03T18:08:06;5.20;99.90
23683;DHT22;24897;53.514;10.482;2023-04-03T18:10:51;5.00;99.90
23683;DHT22;24897;53.514;10.482;2023-04-03T18:13:36;4.90;99.90
23683;DHT22;24897;53.514;10.482;2023-04-03T18:16:21;4.80;99.90
23683;DHT22;24897;53.514;10.482;2023-04-03T18:19:05;5.30;99.90
23683;DHT22;24897;53.514;10.482;2023-04-03T18:21:55;4.70;99.90
23683;DHT22;24897;53.514;10.482;2023-04-03T18:24:40;5.10;99.90
23683;DHT22;24897;53.514;10.482;2023-04-03T18:27:26;4.60;99.90
23683;DHT22;24897;53.514;10.482;2023-04-03T18:30:12;4.90;99.90
23683;DHT22;24897;53.514;10.482;2023-04-03T18:32:57;4.50;99.90
23683;DHT22;24897;53.514;10.482;2023-04-03T18:35:41;2.90;99.90
23683;DHT22;24897;53.514;10.482;2023-04-03T18:38:25;4.80;99.90
23683;DHT22;24897;53.514;10.482;2023-04-03T18:41:09;4.20;99.90